Aérodrome :
LOGIN :

S'inscrire | Disclaimer

   EN    FR    IT 

 










Légende :    VFR   VFR Marginal   IFR   IFR Intensif   IFR Très Intensif
Visi : 
Plafond : 
>= 8 km
>= 3000ft
5 à 8 km
1000 à 3000 ft
1500m à 5 km
500 à 1000 ft
800 à 1500m
200 à 500 ft
< 800m
< 200 ft
Symboles :   Orages  Brouillard  Fortes neiges  Fortes précipitations  Vent > 20 kt
SIGMETs :   Divers  Orages  Givrage  Turbulence  Onde Orograph.  Cendres Volcan.






- Altitude de l'aérodrome : 584 ft


LFPV - Villacoublay Vélizy

DERNIER METAR :
  • 180030Z AUTO 23006KT 180V260 9999 FEW028 SCT160 04/02 Q1024 BECMG BKN010

METARs EXPIRÉS :
  • 180000Z AUTO 24006KT 210V270 CAVOK 04/01 Q1024 BECMG BKN010
  • 172330Z AUTO 23006KT CAVOK 04/01 Q1024 BECMG BKN010
  • 172300Z AUTO 23007KT CAVOK 04/01 Q1024 BECMG BKN010
  • 172230Z AUTO 24008KT CAVOK 05/01 Q1024 BECMG BKN010
  • 172200Z AUTO 24008KT CAVOK 05/01 Q1024 NOSIG

TAF TAF LFPV
Valide du 17 à 21h jusqu'au 18 à 21h UTC


172000Z 1721/1821 25005KT CAVOK
BECMG 1800/1802 BKN010
PROB30
TEMPO 1803/1808 BKN005
BECMG 1808/1809 SCT015
BECMG 1813/1815 36005KT CAVOK



MET'MAP, la Météo Aéronautique d'un coup d'oeil ! - Copyright ORBIFLY Décembre 2007 - Disclaimer

ORBIFLY MET'MAP TEAM :

Programmation & Développement : Alexandra Zaïnal
Sur une idée originale de : Baudouin d'Aumeries
Assistance à la programmation : Marc-Olivier Méhu
Soutien technique & logistique : Manuel Goepfert

Contact : metmap@orbifly.com




SOURCES & CREDITS :

   NOAA